KDGW/DGW METAR and TAF weather

Enter ICAO airport designator
Station Type Date Time Source
KDGW METAR 2020/09/21 06:53 UTC NOAA

KDGW 210653Z AUTO 00000KT 10SM CLR 07/M01 A3015 RMK AO2 SLPNO T00721006 $


Station Type Date Time Source
KDGW Decoded METAR 2020/09/21 06:53 UTC NOAA

DOUGLAS CONVERSE COUNTY, WY, United States (KDGW) 42-48N 105-23W 1499M
Sep 21, 2020 - 02:53 AM EDT / 2020.09.21 0653 UTC
Wind: Calm:0
Visibility: 10 mile(s):0
Sky conditions: clear
Temperature: 45.0 F (7.2 C)
Dew Point: 30.9 F (-0.6 C)
Relative Humidity: 57%
Pressure (altimeter): 30.15 in. Hg (1020 hPa)
ob: KDGW 210653Z AUTO 00000KT 10SM CLR 07/M01 A3015 RMK AO2 SLPNO T00721006
cycle: 7

Station Type Date Time Source
KDGW TAF UTC NOAA

Error!

Example: see airport list